Time;durP1;ratioP1;P1;durP2;ratioP2;P2;SDS_P1;SDS_P2;PMS_P1;PMS_P2;Temp;Humidity;BMP_temperature;BMP_pressure;BME280_temperature;BME280_humidity;BME280_pressure;Samples;Min_cycle;Max_cycle;Signal;HPM_P1;HPM_P2
2022/11/14 00:00:47;;;;;;;9.00;7.50;;;10.50;99.70;;;;;;5012531;28;20444;-76
2022/11/14 00:03:32;;;;;;;8.53;7.43;;;10.40;99.60;;;;;;5012552;28;20495;-77
2022/11/14 00:06:21;;;;;;;10.13;6.70;;;10.50;99.60;;;;;;5011080;28;20436;-77
2022/11/14 00:09:06;;;;;;;10.67;7.13;;;10.40;99.60;;;;;;5011287;28;20482;-78
2022/11/14 00:11:56;;;;;;;8.53;7.20;;;10.40;99.60;;;;;;5012489;28;20428;-76
2022/11/14 00:14:40;;;;;;;11.80;7.60;;;10.40;99.60;;;;;;5012431;28;20454;-77
2022/11/14 00:17:27;;;;;;;10.30;7.90;;;10.40;99.60;;;;;;5016213;28;20395;-77
2022/11/14 00:20:12;;;;;;;8.20;7.20;;;10.40;99.50;;;;;;5001243;28;20515;-76
2022/11/14 00:22:57;;;;;;;7.90;7.03;;;10.40;99.50;;;;;;5016117;28;20537;-77
2022/11/14 00:25:48;;;;;;;9.73;6.57;;;10.40;99.50;;;;;;5014915;28;20421;-77
2022/11/14 00:28:37;;;;;;;10.43;6.87;;;10.40;99.50;;;;;;5015376;28;20436;-77
2022/11/14 00:31:24;;;;;;;9.37;6.57;;;10.30;99.40;;;;;;5016294;28;20412;-77
2022/11/14 00:34:11;;;;;;;10.63;8.03;;;10.30;99.40;;;;;;5014955;28;20930;-77
2022/11/14 00:37:00;;;;;;;6.93;6.03;;;10.30;99.40;;;;;;4995426;28;20445;-77
2022/11/14 00:39:45;;;;;;;7.63;6.47;;;10.30;99.40;;;;;;4995134;28;20449;-77
2022/11/14 00:42:33;;;;;;;8.03;6.93;;;10.30;99.40;;;;;;5000350;28;20486;-77
2022/11/14 00:45:25;;;;;;;8.27;6.60;;;10.30;99.40;;;;;;5015176;28;20424;-77
2022/11/14 00:48:09;;;;;;;8.87;6.27;;;10.30;99.40;;;;;;5014755;28;20840;-77
2022/11/14 00:50:54;;;;;;;7.57;6.13;;;10.30;99.40;;;;;;5014498;28;20480;-77
2022/11/14 00:53:40;;;;;;;7.63;6.07;;;10.30;99.40;;;;;;5000874;28;20537;-77
2022/11/14 00:56:28;;;;;;;7.70;6.30;;;10.30;99.40;;;;;;5014780;28;20412;-77
2022/11/14 00:59:13;;;;;;;7.80;6.23;;;10.20;99.30;;;;;;5015482;28;20451;-77
2022/11/14 01:01:57;;;;;;;7.40;6.47;;;10.20;99.40;;;;;;5015517;28;20409;-77
2022/11/14 01:04:41;;;;;;;8.00;6.00;;;10.20;99.40;;;;;;5015416;28;20433;-77
2022/11/14 01:07:26;;;;;;;9.40;5.90;;;10.20;99.40;;;;;;5014312;28;20437;-77
2022/11/14 01:10:19;;;;;;;7.70;6.43;;;10.20;99.40;;;;;;5001119;28;20440;-77
2022/11/14 01:13:04;;;;;;;8.17;6.13;;;10.20;99.40;;;;;;5014166;28;20448;-77
2022/11/14 01:15:51;;;;;;;8.33;5.93;;;10.20;99.40;;;;;;5014193;28;20396;-78
2022/11/14 01:18:38;;;;;;;11.33;5.73;;;10.20;99.40;;;;;;5015162;28;20445;-77
2022/11/14 01:21:23;;;;;;;7.97;6.57;;;10.20;99.30;;;;;;5014209;28;20508;-77
2022/11/14 01:24:10;;;;;;;7.43;5.80;;;10.20;99.30;;;;;;5014951;28;20574;-77
2022/11/14 01:26:57;;;;;;;8.50;5.60;;;10.10;99.30;;;;;;5014498;28;20458;-77
2022/11/14 01:29:44;;;;;;;7.50;6.77;;;10.20;99.40;;;;;;5013840;28;20443;-77
2022/11/14 01:32:30;;;;;;;7.40;5.90;;;10.10;99.30;;;;;;5014931;28;20439;-77
2022/11/14 01:35:17;;;;;;;7.40;5.57;;;10.10;99.30;;;;;;5013881;28;20424;-77
2022/11/14 01:38:06;;;;;;;7.63;5.73;;;10.10;99.30;;;;;;5014835;28;20412;-77
2022/11/14 01:40:59;;;;;;;6.50;5.60;;;10.10;99.60;;;;;;5013790;28;20455;-77
2022/11/14 01:43:47;;;;;;;7.33;5.50;;;10.10;99.20;;;;;;5027407;28;20476;-76
2022/11/14 01:46:39;;;;;;;7.07;6.37;;;10.10;99.20;;;;;;5041669;28;20408;-77
2022/11/14 01:49:28;;;;;;;5.97;5.37;;;10.10;99.20;;;;;;5027450;28;20451;-77
2022/11/14 01:52:14;;;;;;;6.40;5.10;;;10.10;99.10;;;;;;5027674;28;20421;-77
2022/11/14 01:55:05;;;;;;;6.80;5.73;;;10.10;99.20;;;;;;5014523;28;20839;-77
2022/11/14 01:57:52;;;;;;;7.17;5.70;;;10.00;99.10;;;;;;5027533;28;20406;-77
2022/11/14 02:00:39;;;;;;;6.17;5.37;;;10.00;99.10;;;;;;5041401;28;20436;-77
2022/11/14 02:03:24;;;;;;;6.50;5.70;;;10.00;99.10;;;;;;5013078;28;20464;-77
2022/11/14 02:06:15;;;;;;;6.70;6.00;;;10.00;99.10;;;;;;5013300;28;20440;-77
2022/11/14 02:09:06;;;;;;;7.87;6.03;;;10.00;99.00;;;;;;5013185;28;20536;-77
2022/11/14 02:11:55;;;;;;;8.73;6.43;;;10.00;99.00;;;;;;5013981;28;20432;-77
2022/11/14 02:14:44;;;;;;;6.83;5.60;;;10.00;99.00;;;;;;5014215;28;20472;-77
2022/11/14 02:17:30;;;;;;;6.70;5.57;;;10.00;99.00;;;;;;5014192;28;20404;-76
2022/11/14 02:20:21;;;;;;;7.83;5.93;;;10.00;99.00;;;;;;5085223;23;21002;-72
2022/11/14 02:23:06;;;;;;;5.67;5.00;;;10.00;99.00;;;;;;5024677;28;20506;-73
2022/11/14 02:25:51;;;;;;;7.70;5.60;;;9.90;99.50;;;;;;5032611;28;20415;-72
2022/11/14 02:28:39;;;;;;;7.10;5.40;;;9.90;99.50;;;;;;5032177;28;20425;-72
2022/11/14 02:31:24;;;;;;;6.93;5.77;;;9.90;99.40;;;;;;5018249;28;20424;-72
2022/11/14 02:34:08;;;;;;;5.87;5.27;;;9.90;99.50;;;;;;5033275;28;20447;-72
2022/11/14 02:36:56;;;;;;;7.33;6.00;;;9.90;99.50;;;;;;5033368;28;20943;-72
2022/11/14 02:39:41;;;;;;;7.10;5.40;;;9.90;99.50;;;;;;5030633;28;20455;-72
2022/11/14 02:42:26;;;;;;;7.83;6.30;;;9.80;99.50;;;;;;5032278;28;20953;-72
2022/11/14 02:45:13;;;;;;;6.50;5.50;;;9.80;99.80;;;;;;5018408;28;20923;-72
2022/11/14 02:47:57;;;;;;;6.90;6.10;;;9.90;99.50;;;;;;5032241;28;20766;-72
2022/11/14 02:50:44;;;;;;;6.33;5.63;;;9.80;99.40;;;;;;5032907;28;20431;-73
2022/11/14 02:53:28;;;;;;;6.50;5.70;;;9.80;99.40;;;;;;5031191;28;20428;-72
2022/11/14 02:56:15;;;;;;;10.60;6.00;;;9.80;99.40;;;;;;5012282;28;20412;-72
2022/11/14 02:59:00;;;;;;;9.17;5.77;;;9.80;99.40;;;;;;5025943;28;20452;-72
2022/11/14 03:01:44;;;;;;;7.37;5.50;;;9.80;99.40;;;;;;5013121;28;20805;-72
2022/11/14 03:04:32;;;;;;;9.13;5.73;;;9.80;99.40;;;;;;5028128;28;20503;-72
2022/11/14 03:07:18;;;;;;;8.07;5.93;;;9.80;99.40;;;;;;5013077;28;20416;-72
2022/11/14 03:10:06;;;;;;;5.73;5.00;;;9.80;99.70;;;;;;5025007;28;20497;-73
2022/11/14 03:12:57;;;;;;;9.00;5.87;;;9.80;99.40;;;;;;5031871;28;20789;-72
2022/11/14 03:15:42;;;;;;;5.50;5.00;;;9.80;99.40;;;;;;5018063;28;20407;-72
2022/11/14 03:18:26;;;;;;;5.40;4.87;;;9.70;99.30;;;;;;5031528;28;20458;-72
2022/11/14 03:21:14;;;;;;;7.50;6.20;;;9.70;99.30;;;;;;5032566;28;20493;-72
2022/11/14 03:24:01;;;;;;;8.50;5.70;;;9.70;99.30;;;;;;5031354;28;20517;-72
2022/11/14 03:26:45;;;;;;;7.93;5.90;;;9.70;99.30;;;;;;5031577;28;20530;-72
2022/11/14 03:29:34;;;;;;;6.07;5.40;;;9.70;99.30;;;;;;5031350;28;20811;-72
2022/11/14 03:32:24;;;;;;;11.23;6.13;;;9.70;99.20;;;;;;5032508;28;20939;-72
2022/11/14 03:35:10;;;;;;;8.67;5.80;;;9.70;99.20;;;;;;5032385;28;20466;-72
2022/11/14 03:37:56;;;;;;;6.03;5.43;;;9.70;99.20;;;;;;5031493;28;20419;-72
2022/11/14 03:40:41;;;;;;;6.10;5.00;;;9.60;99.10;;;;;;5032438;28;20461;-72
2022/11/14 03:43:31;;;;;;;7.10;5.23;;;9.60;99.10;;;;;;5031304;28;20442;-72
2022/11/14 03:46:18;;;;;;;10.10;5.73;;;9.60;99.10;;;;;;5032561;28;20400;-72
2022/11/14 03:49:03;;;;;;;5.97;5.03;;;9.60;99.10;;;;;;5016892;28;20455;-72
2022/11/14 03:52:07;;;;;;;6.80;4.73;;;9.60;99.10;;;;;;5036095;28;20770;-72
2022/11/14 03:54:59;;;;;;;5.73;5.23;;;9.60;99.10;;;;;;5035936;28;20436;-72
2022/11/14 03:57:43;;;;;;;8.67;5.37;;;9.60;99.00;;;;;;5021589;28;20840;-72
2022/11/14 04:00:28;;;;;;;6.87;5.40;;;9.60;99.00;;;;;;5035359;28;20455;-72
2022/11/14 04:03:18;;;;;;;6.60;5.03;;;9.60;99.00;;;;;;5035216;28;20439;-72
2022/11/14 04:06:03;;;;;;;6.33;5.53;;;9.60;99.00;;;;;;5035269;28;20447;-72
2022/11/14 04:08:47;;;;;;;7.13;5.10;;;9.60;99.00;;;;;;5036364;28;20415;-72
2022/11/14 04:11:32;;;;;;;8.73;5.90;;;9.60;99.00;;;;;;5021295;28;20447;-72
2022/11/14 04:14:37;;;;;;;6.70;4.90;;;9.50;98.90;;;;;;5032433;28;20422;-72
2022/11/14 04:17:24;;;;;;;5.80;4.87;;;9.50;98.90;;;;;;5036467;28;20439;-72
2022/11/14 04:20:10;;;;;;;6.20;4.90;;;9.50;98.80;;;;;;5035001;28;20459;-72
2022/11/14 04:22:54;;;;;;;7.17;5.30;;;9.50;98.80;;;;;;5034957;28;20963;-72
2022/11/14 04:25:38;;;;;;;8.47;5.47;;;9.50;98.80;;;;;;5036237;28;20395;-72
2022/11/14 04:28:23;;;;;;;5.43;4.93;;;9.40;98.70;;;;;;5036104;28;20503;-72
2022/11/14 04:31:07;;;;;;;7.43;5.33;;;9.50;98.80;;;;;;5035983;28;20861;-73
2022/11/14 04:33:52;;;;;;;5.13;4.50;;;9.50;98.80;;;;;;5034727;28;20399;-73
2022/11/14 04:36:36;;;;;;;7.60;5.23;;;9.50;98.80;;;;;;5001431;28;20400;-72
2022/11/14 04:39:43;;;;;;;8.90;5.10;;;9.50;98.70;;;;;;5015661;28;20975;-73
2022/11/14 04:42:30;;;;;;;5.63;5.00;;;9.40;98.70;;;;;;5014971;28;20401;-72
2022/11/14 04:45:20;;;;;;;7.10;5.10;;;9.40;98.70;;;;;;5016189;28;20424;-73
2022/11/14 04:48:07;;;;;;;5.10;4.50;;;9.40;98.70;;;;;;5015735;28;20400;-73
2022/11/14 04:50:52;;;;;;;6.77;4.70;;;9.40;98.70;;;;;;5015810;28;20436;-73
2022/11/14 04:53:36;;;;;;;7.70;4.60;;;9.40;98.80;;;;;;5015930;28;20413;-72
2022/11/14 04:56:25;;;;;;;5.67;4.70;;;9.40;98.70;;;;;;5001288;28;20416;-73
2022/11/14 04:59:10;;;;;;;6.37;5.00;;;9.40;98.60;;;;;;5014509;28;20440;-73
2022/11/14 05:01:58;;;;;;;6.17;5.20;;;9.40;98.70;;;;;;5013501;28;20432;-72
2022/11/14 05:04:44;;;;;;;7.03;4.90;;;9.30;98.60;;;;;;5020754;28;20529;-73
2022/11/14 05:07:31;;;;;;;5.70;4.70;;;9.30;98.60;;;;;;5033804;28;20485;-72
2022/11/14 05:10:16;;;;;;;7.50;5.37;;;9.30;98.60;;;;;;5035214;28;20443;-73
2022/11/14 05:13:00;;;;;;;6.00;4.37;;;9.30;98.60;;;;;;5035009;28;20411;-73
2022/11/14 05:15:45;;;;;;;8.03;4.80;;;9.30;98.60;;;;;;5035278;28;20513;-72
2022/11/14 05:18:29;;;;;;;5.47;4.33;;;9.30;98.60;;;;;;5035316;28;20407;-75
2022/11/14 05:21:15;;;;;;;5.87;4.27;;;9.30;98.50;;;;;;5035397;28;20424;-73
2022/11/14 05:24:00;;;;;;;6.07;4.20;;;9.30;98.50;;;;;;5034480;28;20436;-73
2022/11/14 05:26:44;;;;;;;7.60;5.20;;;9.30;98.50;;;;;;5035491;28;20439;-72
2022/11/14 05:29:31;;;;;;;5.23;4.43;;;9.30;98.50;;;;;;5034231;28;20439;-72
2022/11/14 05:32:28;;;;;;;5.27;4.63;;;9.20;98.40;;;;;;5035035;28;20877;-73
2022/11/14 05:35:12;;;;;;;5.37;4.60;;;9.20;98.40;;;;;;5033372;28;20422;-75
2022/11/14 05:38:01;;;;;;;6.30;5.10;;;9.20;98.50;;;;;;5034709;28;20443;-75
2022/11/14 05:40:45;;;;;;;8.10;5.40;;;9.20;98.40;;;;;;5034796;28;20435;-75
2022/11/14 05:43:33;;;;;;;6.70;5.30;;;9.20;98.40;;;;;;5033893;28;20434;-75
2022/11/14 05:46:20;;;;;;;7.03;5.43;;;9.20;98.40;;;;;;5034603;28;20461;-75
2022/11/14 05:49:04;;;;;;;5.70;4.80;;;9.20;98.40;;;;;;5033533;28;20443;-75
2022/11/14 05:51:49;;;;;;;6.10;4.70;;;9.20;98.40;;;;;;5033744;28;20422;-75
2022/11/14 05:54:36;;;;;;;7.00;5.23;;;9.20;98.40;;;;;;5033544;28;20411;-75
2022/11/14 05:57:23;;;;;;;6.47;4.50;;;9.20;98.40;;;;;;5033683;28;20420;-75
2022/11/14 06:00:10;;;;;;;6.03;5.43;;;9.20;98.40;;;;;;5034485;28;20439;-74
2022/11/14 06:02:55;;;;;;;5.47;4.80;;;9.20;98.40;;;;;;5033253;28;20461;-74
2022/11/14 06:05:40;;;;;;;5.97;5.10;;;9.20;98.40;;;;;;5033351;28;20455;-75
2022/11/14 06:08:29;;;;;;;5.30;4.60;;;9.10;98.30;;;;;;5034455;28;20431;-75
2022/11/14 06:11:19;;;;;;;6.93;5.40;;;9.10;98.30;;;;;;5018804;28;20424;-75
2022/11/14 06:14:05;;;;;;;6.70;5.00;;;9.10;98.30;;;;;;5019261;28;20447;-75
2022/11/14 06:16:51;;;;;;;6.13;5.50;;;9.10;98.30;;;;;;5033427;28;20415;-75
2022/11/14 06:19:35;;;;;;;7.43;4.80;;;9.10;98.30;;;;;;5033773;28;20501;-75
2022/11/14 06:22:20;;;;;;;7.00;5.17;;;9.10;98.40;;;;;;5033297;28;20426;-75
2022/11/14 06:25:06;;;;;;;6.33;4.80;;;9.10;98.40;;;;;;5034145;28;20489;-75
2022/11/14 06:27:58;;;;;;;6.00;5.07;;;9.10;98.40;;;;;;5033915;28;20400;-75
2022/11/14 06:30:43;;;;;;;6.00;4.90;;;9.10;98.40;;;;;;5033946;28;20435;-75
2022/11/14 06:33:31;;;;;;;6.40;5.30;;;9.10;98.40;;;;;;5033911;28;20407;-75
2022/11/14 06:36:22;;;;;;;6.17;5.03;;;9.10;98.40;;;;;;5019127;28;20751;-75
2022/11/14 06:39:09;;;;;;;5.60;4.60;;;9.00;98.40;;;;;;5032916;28;20454;-75
2022/11/14 06:41:55;;;;;;;7.63;4.40;;;9.10;98.50;;;;;;5012724;28;20436;-75
2022/11/14 06:44:39;;;;;;;5.03;4.53;;;9.00;98.40;;;;;;5012543;28;20873;-75
2022/11/14 06:47:24;;;;;;;5.70;5.10;;;9.00;98.40;;;;;;5029058;28;20458;-73
2022/11/14 06:50:11;;;;;;;8.80;6.00;;;9.00;98.40;;;;;;5032091;28;20432;-72
2022/11/14 06:52:57;;;;;;;5.50;4.90;;;9.00;98.50;;;;;;5032042;28;20453;-74
2022/11/14 06:55:42;;;;;;;9.63;5.40;;;9.00;98.50;;;;;;5032344;28;20411;-71
2022/11/14 06:58:28;;;;;;;6.43;4.93;;;9.00;98.50;;;;;;5032128;28;20451;-70
2022/11/14 07:01:16;;;;;;;5.40;4.43;;;9.00;98.60;;;;;;5032727;28;20392;-70
2022/11/14 07:04:01;;;;;;;5.67;4.87;;;9.00;98.50;;;;;;5033476;28;20531;-70
2022/11/14 07:06:48;;;;;;;6.20;4.87;;;9.00;98.50;;;;;;5033311;28;20422;-70
2022/11/14 07:09:36;;;;;;;6.60;5.17;;;9.00;98.50;;;;;;5033124;28;20439;-70
2022/11/14 07:12:20;;;;;;;5.67;5.07;;;9.00;98.50;;;;;;5032224;28;20407;-70
2022/11/14 07:15:05;;;;;;;5.93;5.10;;;9.00;98.60;;;;;;5031844;28;20414;-69
2022/11/14 07:17:52;;;;;;;6.13;4.83;;;8.90;98.60;;;;;;5031398;28;20811;-69
2022/11/14 07:20:39;;;;;;;6.60;4.97;;;8.90;98.60;;;;;;5032319;28;20985;-70
2022/11/14 07:23:30;;;;;;;4.97;4.40;;;8.90;98.60;;;;;;5032414;28;20471;-70
2022/11/14 07:26:17;;;;;;;5.17;4.67;;;8.90;98.60;;;;;;5030377;28;20419;-69
2022/11/14 07:29:07;;;;;;;4.73;4.03;;;8.90;98.60;;;;;;5012161;28;20566;-71
2022/11/14 07:31:54;;;;;;;5.80;5.00;;;9.00;98.60;;;;;;5012924;28;20412;-70
2022/11/14 07:34:39;;;;;;;7.63;5.30;;;9.00;98.60;;;;;;5010345;28;20488;-73
2022/11/14 07:37:25;;;;;;;6.17;4.80;;;9.00;98.60;;;;;;5029782;28;20509;-71
2022/11/14 07:40:13;;;;;;;5.47;4.73;;;9.00;98.60;;;;;;5032267;28;20446;-71
2022/11/14 07:42:59;;;;;;;6.30;5.40;;;8.90;98.60;;;;;;5029903;28;20924;-70
2022/11/14 07:45:44;;;;;;;6.13;5.17;;;8.90;98.60;;;;;;5031924;28;20504;-70
2022/11/14 07:48:29;;;;;;;8.63;4.43;;;8.90;98.60;;;;;;5030905;28;20473;-71
2022/11/14 07:51:20;;;;;;;7.60;5.40;;;8.90;98.60;;;;;;5030423;28;20939;-70
2022/11/14 07:54:05;;;;;;;6.70;5.23;;;8.90;98.70;;;;;;5030946;28;20414;-70
2022/11/14 07:56:50;;;;;;;6.33;5.37;;;8.90;98.80;;;;;;5031850;28;20442;-70
2022/11/14 07:59:37;;;;;;;6.43;5.70;;;8.90;98.90;;;;;;5030476;28;20455;-70
2022/11/14 08:02:21;;;;;;;6.90;5.20;;;8.90;98.90;;;;;;5028426;28;20427;-70
2022/11/14 08:05:06;;;;;;;5.80;4.87;;;8.90;99.00;;;;;;5016592;28;20940;-70
2022/11/14 08:07:53;;;;;;;8.30;5.90;;;8.90;99.00;;;;;;5031536;28;20403;-70
2022/11/14 08:10:37;;;;;;;7.00;5.33;;;8.90;99.10;;;;;;5030659;28;20446;-72
2022/11/14 08:13:22;;;;;;;7.30;5.80;;;8.90;99.20;;;;;;5031462;28;20466;-71
2022/11/14 08:16:14;;;;;;;10.40;6.97;;;8.90;99.10;;;;;;5030463;28;20447;-71
2022/11/14 08:19:03;;;;;;;7.80;6.20;;;8.90;99.20;;;;;;5030504;28;20468;-71
2022/11/14 08:21:53;;;;;;;8.90;6.10;;;8.90;99.30;;;;;;5031814;28;20457;-71
2022/11/14 08:25:07;;;;;;;8.40;6.77;;;8.90;99.30;;;;;;5026268;28;20936;-71
2022/11/14 08:27:54;;;;;;;7.83;6.33;;;8.90;99.30;;;;;;5030514;28;20421;-71
2022/11/14 08:30:39;;;;;;;8.07;6.73;;;8.90;99.30;;;;;;5030142;28;20435;-71
2022/11/14 08:33:23;;;;;;;7.53;6.10;;;8.90;99.30;;;;;;5030558;28;20414;-70
2022/11/14 08:36:10;;;;;;;9.77;7.27;;;8.90;99.40;;;;;;5030153;28;20459;-72
2022/11/14 08:38:54;;;;;;;8.57;6.53;;;9.00;99.40;;;;;;5034029;28;20938;-71
2022/11/14 08:41:41;;;;;;;10.23;6.97;;;9.00;99.40;;;;;;5020443;28;20946;-71
2022/11/14 08:44:28;;;;;;;8.80;7.30;;;8.90;99.40;;;;;;5033948;28;20458;-71
2022/11/14 08:47:13;;;;;;;12.00;7.13;;;9.00;99.50;;;;;;5035305;28;20411;-70
2022/11/14 08:50:00;;;;;;;9.73;7.10;;;8.90;99.40;;;;;;5033657;28;20446;-71
2022/11/14 08:52:51;;;;;;;8.20;7.10;;;9.00;99.50;;;;;;5034788;28;20428;-70
2022/11/14 08:55:42;;;;;;;12.10;7.40;;;9.00;99.50;;;;;;5033459;28;20478;-71
2022/11/14 08:58:28;;;;;;;10.00;6.90;;;9.00;99.50;;;;;;5035373;28;20780;-70
2022/11/14 09:01:14;;;;;;;11.07;7.50;;;9.00;99.50;;;;;;5033997;28;20552;-71
2022/11/14 09:04:04;;;;;;;8.70;6.83;;;9.00;99.50;;;;;;5034768;28;20449;-70
2022/11/14 09:06:48;;;;;;;10.37;7.77;;;9.00;99.50;;;;;;5033900;28;20451;-71
2022/11/14 09:09:33;;;;;;;13.27;8.60;;;9.00;99.60;;;;;;5020019;28;20443;-71
2022/11/14 09:12:20;;;;;;;10.67;7.00;;;9.10;99.60;;;;;;5033263;28;20458;-71
2022/11/14 09:15:08;;;;;;;11.97;8.30;;;9.00;99.60;;;;;;5031024;28;20439;-71
2022/11/14 09:17:54;;;;;;;11.50;8.40;;;9.10;99.70;;;;;;5015304;28;20449;-70
2022/11/14 09:20:38;;;;;;;13.00;8.40;;;9.00;99.80;;;;;;5015081;28;20960;-71
2022/11/14 09:23:24;;;;;;;11.83;7.60;;;9.00;99.80;;;;;;4999758;28;21015;-71
2022/11/14 09:26:09;;;;;;;15.17;10.37;;;9.10;99.80;;;;;;5015658;28;20772;-70
2022/11/14 09:28:54;;;;;;;13.30;9.00;;;9.10;99.90;;;;;;5013971;28;20436;-70
2022/11/14 09:31:38;;;;;;;14.47;9.63;;;9.00;99.90;;;;;;5014027;28;20423;-70
2022/11/14 09:34:23;;;;;;;12.70;9.27;;;9.00;99.90;;;;;;5014304;28;20452;-70
2022/11/14 09:37:12;;;;;;;13.17;8.90;;;9.00;99.90;;;;;;5031577;28;20427;-70
2022/11/14 09:39:57;;;;;;;14.23;10.33;;;9.00;99.90;;;;;;5033415;28;20968;-70
2022/11/14 09:43:12;;;;;;;15.63;9.07;;;9.10;99.90;;;;;;5020022;28;20947;-70
2022/11/14 09:45:57;;;;;;;16.03;10.07;;;9.10;99.90;;;;;;5034738;28;20399;-70
2022/11/14 09:48:44;;;;;;;14.30;10.60;;;9.10;99.90;;;;;;5034091;28;20904;-70
2022/11/14 09:51:32;;;;;;;14.00;9.03;;;9.10;99.90;;;;;;5033483;28;20408;-70
2022/11/14 09:54:23;;;;;;;14.10;9.50;;;9.10;99.90;;;;;;5034562;28;20769;-70
2022/11/14 09:57:18;;;;;;;12.90;9.27;;;9.10;99.90;;;;;;5033439;28;20565;-70
2022/11/14 10:00:15;;;;;;;13.50;9.50;;;9.10;99.90;;;;;;5013925;28;20438;-70
2022/11/14 10:03:32;;;;;;;15.40;9.50;;;9.10;99.90;;;;;;5029943;28;20819;-69
2022/11/14 10:06:32;;;;;;;14.40;9.00;;;9.20;99.90;;;;;;5023365;28;20439;-70
2022/11/14 10:09:38;;;;;;;18.93;10.80;;;9.20;99.90;;;;;;5014415;28;20435;-70
2022/11/14 10:12:30;;;;;;;13.80;9.27;;;9.10;99.90;;;;;;5014674;28;20404;-70
2022/11/14 10:15:25;;;;;;;16.20;10.03;;;9.20;99.90;;;;;;5013959;28;20432;-70
2022/11/14 10:18:22;;;;;;;16.30;10.80;;;9.20;99.90;;;;;;5013974;28;20434;-70
2022/11/14 10:21:42;;;;;;;13.47;9.53;;;9.20;99.90;;;;;;5012763;28;20793;-70
2022/11/14 10:24:45;;;;;;;12.73;8.60;;;9.20;99.90;;;;;;5009720;28;20854;-69
2022/11/14 10:27:39;;;;;;;10.90;8.33;;;9.10;99.90;;;;;;5013244;28;20438;-71
2022/11/14 10:30:36;;;;;;;13.27;9.50;;;9.20;99.90;;;;;;5087848;23;20581;-72
2022/11/14 10:33:46;;;;;;;12.07;8.40;;;9.20;99.90;;;;;;5012316;28;20474;-72
2022/11/14 10:36:46;;;;;;;15.50;8.60;;;9.20;99.90;;;;;;5006647;28;20444;-72
2022/11/14 10:39:39;;;;;;;13.37;7.80;;;9.20;99.90;;;;;;4992618;28;20464;-72
2022/11/14 10:42:41;;;;;;;10.60;8.20;;;9.20;99.90;;;;;;5002997;28;20412;-72
2022/11/14 10:45:40;;;;;;;11.00;6.80;;;9.20;99.90;;;;;;5025846;28;20432;-72
2022/11/14 10:48:29;;;;;;;11.60;7.87;;;9.20;99.90;;;;;;5011583;28;20423;-73
2022/11/14 10:51:51;;;;;;;11.90;7.73;;;9.20;99.90;;;;;;5010285;28;20420;-73
2022/11/14 10:54:49;;;;;;;11.37;7.93;;;9.20;99.90;;;;;;4993170;28;20440;-73
2022/11/14 10:57:34;;;;;;;9.17;6.80;;;9.20;99.90;;;;;;5004654;28;20557;-73
2022/11/14 11:00:21;;;;;;;10.37;7.00;;;9.20;99.90;;;;;;5010496;28;20448;-74
2022/11/14 11:03:09;;;;;;;8.30;6.70;;;9.30;99.90;;;;;;5012492;28;20494;-73
2022/11/14 11:05:59;;;;;;;8.87;6.97;;;9.30;99.90;;;;;;5011614;28;21262;-73
2022/11/14 11:12:16;;;;;;;8.90;6.27;;;9.30;99.90;;;;;;5012622;28;20784;-73
2022/11/14 11:15:23;;;;;;;9.20;6.80;;;9.30;99.90;;;;;;5008123;28;20466;-72
2022/11/14 11:18:34;;;;;;;8.67;6.67;;;9.30;99.90;;;;;;4992613;28;20484;-71
2022/11/14 11:21:21;;;;;;;9.17;6.23;;;9.30;99.90;;;;;;5008460;28;20431;-72
2022/11/14 11:24:08;;;;;;;7.33;5.27;;;9.30;99.90;;;;;;5012603;28;20444;-71
2022/11/14 11:27:11;;;;;;;8.40;5.87;;;9.40;99.90;;;;;;5012770;28;20416;-72
2022/11/14 11:30:22;;;;;;;8.27;5.97;;;9.40;99.90;;;;;;5002828;28;20460;-72
2022/11/14 11:33:36;;;;;;;8.27;6.47;;;9.40;99.90;;;;;;5006735;28;21191;-72
2022/11/14 11:36:25;;;;;;;7.67;5.97;;;9.40;99.90;;;;;;5010985;28;20931;-72
2022/11/14 11:39:21;;;;;;;9.17;7.00;;;9.40;99.90;;;;;;5005752;28;20451;-71
2022/11/14 11:42:11;;;;;;;9.50;6.40;;;9.40;99.90;;;;;;5010875;28;20432;-71
2022/11/14 11:45:01;;;;;;;10.77;6.30;;;9.50;99.90;;;;;;5003144;28;21128;-71
2022/11/14 11:48:13;;;;;;;8.30;5.93;;;9.50;99.90;;;;;;5010757;28;20468;-72
2022/11/14 11:51:03;;;;;;;8.90;6.20;;;9.50;99.90;;;;;;5011586;28;20844;-72
2022/11/14 11:54:33;;;;;;;11.33;7.20;;;9.50;99.90;;;;;;5011579;28;20424;-72
2022/11/14 11:57:24;;;;;;;9.97;6.77;;;9.60;99.90;;;;;;5011505;28;20497;-71
2022/11/14 12:00:19;;;;;;;10.90;7.20;;;9.50;99.90;;;;;;4991773;28;20524;-72
2022/11/14 12:03:08;;;;;;;8.63;6.43;;;9.50;99.90;;;;;;5010689;28;20452;-72
2022/11/14 12:06:12;;;;;;;11.50;7.60;;;9.50;99.90;;;;;;5012976;28;20436;-71
2022/11/14 12:09:21;;;;;;;10.83;7.10;;;9.50;99.90;;;;;;5017512;28;20440;-72
2022/11/14 12:12:42;;;;;;;11.80;6.97;;;9.60;99.90;;;;;;5013041;28;20444;-72
2022/11/14 12:15:48;;;;;;;10.50;7.20;;;9.60;99.90;;;;;;5014221;28;20853;-71
2022/11/14 12:18:44;;;;;;;14.60;8.13;;;9.60;99.90;;;;;;5015769;28;20411;-71
2022/11/14 12:21:59;;;;;;;13.40;7.90;;;9.60;99.90;;;;;;5028189;28;20486;-72
2022/11/14 12:25:07;;;;;;;11.10;7.73;;;9.60;99.90;;;;;;5013780;28;20452;-72
2022/11/14 12:28:14;;;;;;;9.70;7.30;;;9.60;99.90;;;;;;5012991;28;20519;-72
2022/11/14 12:31:03;;;;;;;10.10;7.37;;;9.60;99.90;;;;;;5008628;28;20441;-72
2022/11/14 12:34:00;;;;;;;10.53;7.20;;;9.70;99.90;;;;;;5015426;28;20756;-72
2022/11/14 12:36:48;;;;;;;8.90;7.00;;;9.70;99.90;;;;;;5013814;28;20865;-72
2022/11/14 12:39:33;;;;;;;8.90;7.23;;;9.70;99.90;;;;;;5015316;28;20436;-72
2022/11/14 12:42:22;;;;;;;9.63;7.23;;;9.70;99.90;;;;;;5014133;28;20424;-72
2022/11/14 12:45:43;;;;;;;9.10;6.10;;;9.80;99.90;;;;;;5005807;28;20462;-72
2022/11/14 12:48:32;;;;;;;9.17;7.10;;;9.70;99.90;;;;;;5001881;28;20401;-72
2022/11/14 12:51:26;;;;;;;10.03;7.40;;;9.80;99.90;;;;;;5013755;28;20447;-71
2022/11/14 12:54:43;;;;;;;11.47;7.63;;;9.80;99.90;;;;;;5008480;28;20456;-72
2022/11/14 12:57:46;;;;;;;9.13;7.33;;;9.80;99.90;;;;;;5005862;28;20421;-72
2022/11/14 13:00:33;;;;;;;9.77;6.67;;;9.80;99.90;;;;;;5002504;28;20995;-72
2022/11/14 13:03:56;;;;;;;11.17;7.37;;;9.80;99.90;;;;;;5013383;28;20468;-71
2022/11/14 13:07:09;;;;;;;11.37;7.70;;;9.80;99.90;;;;;;5002396;28;20437;-72
2022/11/14 13:10:19;;;;;;;11.13;7.37;;;9.80;99.90;;;;;;5029658;28;20444;-72
2022/11/14 13:22:44;;;;;;;9.00;6.70;;;9.90;99.90;;;;;;4999241;28;20445;-72
2022/11/14 13:25:29;;;;;;;9.90;7.80;;;9.90;99.90;;;;;;5012934;28;20436;-72
2022/11/14 13:28:48;;;;;;;8.40;6.20;;;9.90;99.90;;;;;;5012969;28;20803;-72
2022/11/14 13:31:47;;;;;;;9.83;7.27;;;9.90;99.90;;;;;;5013030;28;20432;-72
2022/11/14 13:34:37;;;;;;;9.10;6.90;;;9.90;99.90;;;;;;5013342;28;20432;-72
2022/11/14 13:37:46;;;;;;;9.33;6.77;;;9.90;99.90;;;;;;5002995;28;20445;-72
2022/11/14 13:40:43;;;;;;;11.10;8.30;;;9.90;99.90;;;;;;5013844;28;20888;-72
2022/11/14 13:43:42;;;;;;;8.60;6.33;;;9.90;99.90;;;;;;5028419;28;20507;-72
2022/11/14 13:46:59;;;;;;;8.90;7.30;;;9.90;99.90;;;;;;5012792;28;20503;-72
2022/11/14 13:49:55;;;;;;;8.53;6.47;;;9.90;99.90;;;;;;5012505;28;20498;-72
2022/11/14 13:52:46;;;;;;;14.00;8.53;;;9.90;99.90;;;;;;5014195;28;20805;-71
2022/11/14 13:55:54;;;;;;;10.40;6.97;;;9.90;99.90;;;;;;5012779;28;20438;-72
2022/11/14 13:58:57;;;;;;;9.13;6.70;;;9.90;99.90;;;;;;5012681;28;20452;-72
2022/11/14 14:02:05;;;;;;;10.23;7.10;;;10.00;99.90;;;;;;5022614;28;20431;-73
2022/11/14 14:04:58;;;;;;;9.13;6.80;;;10.00;99.90;;;;;;4983210;28;20920;-73
2022/11/14 14:07:52;;;;;;;10.17;6.73;;;10.00;99.90;;;;;;5013315;28;20417;-72
2022/11/14 14:10:55;;;;;;;9.17;6.90;;;10.00;99.90;;;;;;5012006;28;20444;-73
2022/11/14 14:14:12;;;;;;;9.77;7.40;;;10.00;99.90;;;;;;5013259;28;20494;-73
2022/11/14 14:17:35;;;;;;;12.53;7.90;;;10.00;99.90;;;;;;5011080;28;20469;-73
2022/11/14 14:20:35;;;;;;;11.30;8.00;;;10.00;99.90;;;;;;5012172;28;20816;-73
2022/11/14 14:23:38;;;;;;;9.30;7.30;;;10.00;99.90;;;;;;5013300;28;20988;-73
2022/11/14 14:26:32;;;;;;;10.77;7.70;;;10.00;99.90;;;;;;5012393;28;20791;-73
2022/11/14 14:29:24;;;;;;;9.87;7.20;;;10.00;99.90;;;;;;4994531;28;20822;-73
2022/11/14 14:32:20;;;;;;;10.20;7.53;;;10.00;99.90;;;;;;5028229;28;20416;-73
2022/11/14 14:35:21;;;;;;;10.93;7.83;;;10.00;99.90;;;;;;5011758;28;20452;-73
2022/11/14 14:38:11;;;;;;;9.30;7.13;;;10.00;99.90;;;;;;5023845;28;20416;-73
2022/11/14 14:40:59;;;;;;;10.20;7.80;;;10.00;99.90;;;;;;5013051;28;20432;-73
2022/11/14 14:43:54;;;;;;;10.20;7.33;;;10.00;99.90;;;;;;5012732;28;20484;-73
2022/11/14 14:46:38;;;;;;;10.90;7.63;;;10.00;99.90;;;;;;5000230;28;20421;-73
2022/11/14 14:49:35;;;;;;;10.70;7.67;;;10.00;99.90;;;;;;5012544;28;20438;-73
2022/11/14 14:52:32;;;;;;;11.07;7.70;;;10.10;99.90;;;;;;4992252;28;20460;-72
2022/11/14 14:55:27;;;;;;;12.07;8.97;;;10.10;99.90;;;;;;4997876;28;20467;-72
2022/11/14 14:58:21;;;;;;;9.67;7.70;;;10.10;99.90;;;;;;5012252;28;20789;-72
2022/11/14 15:01:11;;;;;;;9.83;7.70;;;10.10;99.90;;;;;;5028004;28;20421;-72
2022/11/14 15:04:04;;;;;;;11.50;8.40;;;10.10;99.90;;;;;;5011342;28;20878;-72
2022/11/14 15:06:50;;;;;;;11.03;8.40;;;10.10;99.90;;;;;;5005356;28;20432;-72